Time,TemperatureF,DewpointF,PressureIn,WindDirection,WindDirectionDegrees,WindSpeedMPH,WindSpeedGustMPH,Humidity,HourlyPrecipIn,Conditions,Clouds,dailyrainin,SoftwareType,DateUTC
2013-01-19 00:06:00,34.1,34.1,30.15,SSW,195,0.0,0.0,100,0.00,,,0.00,Wunderground v.1.15,2013-01-19 08:06:00,
2013-01-19 00:35:00,34.3,34.3,30.16,SSW,195,0.0,0.0,100,0.00,,,0.00,Wunderground v.1.15,2013-01-19 08:35:00,
2013-01-19 01:05:00,34.0,34.0,30.16,SSW,195,0.0,0.0,100,0.00,,,0.00,Wunderground v.1.15,2013-01-19 09:05:00,
2013-01-19 01:35:00,34.1,34.1,30.16,SSW,195,0.0,0.0,100,0.00,,,0.00,Wunderground v.1.15,2013-01-19 09:35:00,
2013-01-19 02:06:00,34.6,34.6,30.16,ENE,69,0.0,0.0,100,0.00,,,0.00,Wunderground v.1.15,2013-01-19 10:06:00,
2013-01-19 02:35:00,34.3,34.3,30.16,ENE,69,0.0,0.0,100,0.00,,,0.00,Wunderground v.1.15,2013-01-19 10:35:00,
2013-01-19 03:05:00,34.1,34.1,30.17,ENE,69,0.0,0.0,100,0.00,,,0.00,Wunderground v.1.15,2013-01-19 11:05:00,
2013-01-19 05:06:00,35.6,35.6,30.16,ESE,106,0.0,0.0,100,0.00,,,0.00,Wunderground v.1.15,2013-01-19 13:06:00,
2013-01-19 05:35:00,34.7,34.7,30.17,ESE,106,0.0,0.0,100,0.00,,,0.00,Wunderground v.1.15,2013-01-19 13:35:00,
2013-01-19 06:06:00,33.8,33.8,30.17,ESE,106,0.0,0.0,100,0.00,,,0.00,Wunderground v.1.15,2013-01-19 14:06:00,
2013-01-19 06:36:00,33.5,33.5,30.17,ESE,106,0.0,0.0,100,0.00,,,0.00,Wunderground v.1.15,2013-01-19 14:36:00,
2013-01-19 07:05:00,33.1,33.1,30.18,ESE,106,0.0,0.0,100,0.00,,,0.00,Wunderground v.1.15,2013-01-19 15:05:00,
2013-01-19 07:36:00,32.2,32.2,30.18,ESE,106,0.0,0.0,100,0.00,,,0.00,Wunderground v.1.15,2013-01-19 15:36:00,
2013-01-19 08:05:00,31.9,31.9,30.19,ESE,106,0.0,0.0,100,0.00,,,0.00,Wunderground v.1.15,2013-01-19 16:05:00,
2013-01-19 08:35:00,33.2,33.2,30.21,ESE,106,0.0,0.0,100,0.00,,,0.00,Wunderground v.1.15,2013-01-19 16:35:00,
2013-01-19 09:06:00,35.9,35.9,30.22,ESE,106,0.0,0.0,100,0.00,,,0.00,Wunderground v.1.15,2013-01-19 17:06:00,
2013-01-19 09:35:00,40.6,40.6,30.22,ESE,106,0.0,0.0,100,0.00,,,0.00,Wunderground v.1.15,2013-01-19 17:35:00,
2013-01-19 11:06:00,45.7,42.3,30.23,ESE,106,0.0,0.0,88,0.00,,,0.00,Wunderground v.1.15,2013-01-19 19:06:00,
2013-01-19 11:35:00,47.3,42.7,30.22,ESE,106,0.0,0.0,84,0.00,,,0.00,Wunderground v.1.15,2013-01-19 19:35:00,
2013-01-19 12:35:00,48.8,46.6,30.21,ESE,106,0.0,0.0,92,0.00,,,0.00,Wunderground v.1.15,2013-01-19 20:35:00,
2013-01-19 13:05:00,48.2,46.3,30.21,ESE,106,0.0,0.0,93,0.00,,,0.00,Wunderground v.1.15,2013-01-19 21:05:00,
2013-01-19 14:35:00,49.4,47.5,30.19,ESE,106,0.0,0.0,93,0.00,,,0.00,Wunderground v.1.15,2013-01-19 22:35:00,
2013-01-19 15:06:00,50.5,48.0,30.19,ESE,106,0.0,0.0,91,0.00,,,0.00,Wunderground v.1.15,2013-01-19 23:06:00,
2013-01-19 15:35:00,50.2,48.0,30.20,ESE,106,0.0,0.0,92,0.00,,,0.00,Wunderground v.1.15,2013-01-19 23:35:00,
2013-01-19 16:35:00,45.7,45.4,30.20,ESE,106,0.0,0.0,99,0.00,,,0.00,Wunderground v.1.15,2013-01-20 00:35:00,
2013-01-19 17:05:00,44.2,43.9,30.21,ESE,106,0.0,0.0,99,0.00,,,0.00,Wunderground v.1.15,2013-01-20 01:05:00,
2013-01-19 17:35:00,42.3,42.0,30.20,ESE,106,0.0,0.0,99,0.00,,,0.00,Wunderground v.1.15,2013-01-20 01:35:00,
2013-01-19 18:05:00,41.9,41.9,30.21,ESE,106,0.0,0.0,100,0.00,,,0.00,Wunderground v.1.15,2013-01-20 02:05:00,
2013-01-19 18:35:00,42.3,42.3,30.21,ESE,106,0.0,0.0,100,0.00,,,0.00,Wunderground v.1.15,2013-01-20 02:35:00,
2013-01-19 19:05:00,42.3,42.3,30.22,ESE,106,0.0,0.0,100,0.00,,,0.00,Wunderground v.1.15,2013-01-20 03:05:00,
2013-01-19 20:05:00,42.2,42.2,30.22,ESE,106,0.0,0.0,100,0.00,,,0.00,Wunderground v.1.15,2013-01-20 04:05:00,
2013-01-19 20:35:00,41.8,41.8,30.23,ESE,106,0.0,0.0,100,0.00,,,0.00,Wunderground v.1.15,2013-01-20 04:35:00,
2013-01-19 21:05:00,41.2,41.2,30.23,ESE,106,0.0,0.0,100,0.00,,,0.00,Wunderground v.1.15,2013-01-20 05:05:00,
2013-01-19 21:35:00,40.6,40.6,30.23,ESE,106,0.0,0.0,100,0.00,,,0.00,Wunderground v.1.15,2013-01-20 05:35:00,
2013-01-19 22:05:00,39.8,39.8,30.23,ESE,106,0.0,0.0,100,0.00,,,0.00,Wunderground v.1.15,2013-01-20 06:05:00,
2013-01-19 22:35:00,38.9,38.9,30.24,ESE,106,0.0,0.0,100,0.00,,,0.00,Wunderground v.1.15,2013-01-20 06:35:00,
2013-01-19 23:05:00,38.0,38.0,30.24,ESE,106,0.0,0.0,100,0.00,,,0.00,Wunderground v.1.15,2013-01-20 07:05:00,
2013-01-19 23:35:00,36.9,36.9,30.23,ESE,106,0.0,0.0,100,0.00,,,0.00,Wunderground v.1.15,2013-01-20 07:35:00,